Flugplatz Nienburg-Holzbalge

Für EDXI sind keine METAR/TAF Berichte vorhanden.
Es werden die Flugwettermeldungen vom Flugplatz Wunstorf Airport in 33 km Entfernung angezeigt.

Bericht für ETNW

vom 12.08. um 00:20 UTC

Wind 4 kt aus 130°

Sichtweite 3100 m

Temperatur 23.0°C

Taupunkt 13.0°C

Luftfeuchtigkeit 53%

Luftdruck 1017 hPa

ETNW 120020Z AUTO 13004KT 3100 // ////// 23/13 Q1017 ///

Prognose für ETNW

vom 11.08. um 10:00 UTC

Am 11.08. zwischen 11:00 UTC und 21:00 UTC

Wind 12 kt aus 120°

Sichtweite 10 km oder mehr

keine signifikanten Wettererscheinungen

gering bewölkt in 6000 ft


Am 11.08. zwischen 13:00 UTC und 18:00 UTC mit einer Wahrscheinlichkeit von 30%

variable Windrichtung mit 15 kt in Böen 30 kt

Sichtweite 4000 m

Code: TSRA

aufgelockert bewölkt in 4000 ft

aufgebrochene Bewölkung in 6000 ft


Am 11.08. zwischen 21:00 und 23:00 UTC übergehend zu

Wind 5 kt aus 80°

Sichtweite 10 km oder mehr

keine signifikanten Wettererscheinungen

gering bewölkt in 6000 ft

TAF ETNW 111000Z 1111/1211 12012KT 9999 NSW FEW060 PROB30 1113/1118 VRB15G30KT 4000 TSRA SCT040 BKN060CB BECMG 1121/1123 08005KT 9999 NSW FEW060 BY ETGL
Impressum